Lanzarote, Canary Islands

12:10 AM WEST on July 25, 2014 (GMT +0100)
Lanzarote (GCRR) Elev 69 ft | 28.95 °N, 13.60 °W | Change Station

Current weather conditions updated 40 minutes ago

Scattered Clouds
Scattered Clouds
72 °F
Feels Like 72 °F
N
8
Wind Variable Wind from Variable

Today is forecast to be nearly the same temperature as yesterday.

Today
High -- | Low -- °F
--% Chance of Precip.
Yesterday
High -- | Low -- °F
Precip. -- in
7:11 AM 8:50 PM
Waning Crescent, 4% visible
Pressure 30.04 in
Visibility 6.2 miles
Clouds Few 1800 ft
Scattered Clouds 2500 ft
Dew Point 64 °F
Humidity 78%
Rainfall 0.00 in
Snow Depth Not available.
UV 0 out of 12
Pollen Not available.
Air Quality Not available.
Flu Activity Not available.
METAR GCRR 242230Z VRB07KT 9999 FEW018 SCT025 22/18 Q1017

More Conditions Fewer Conditions

Pressure 30.04 in
Visibility 6.2 miles
Clouds Few 1800 ft
Scattered Clouds 2500 ft
Dew Point 64 °F
Humidity 78%
Rainfall 0.00 in
Snow Depth Not available.
UV 0 out of 12
Pollen Not available.
Air Quality Not available.
Flu Activity Not available.
METAR GCRR 242230Z VRB07KT 9999 FEW018 SCT025 22/18 Q1017

More Conditions Fewer Conditions

10-Day Weather Forecast

Almanac

Astronomy

Jul. 25, 2014 Rise Set
Actual Time 7:11 AM WEST 8:50 PM WEST
Civil Twilight 6:45 AM WEST 9:16 PM WEST
Nautical Twilight 6:13 AM WEST 9:47 PM WEST
Astronomical Twilight 5:41 AM WEST 10:20 PM WEST
Moon 5:57 AM WEST (7/25) 7:42 PM WEST (7/25)
Length of Visible Light 14h 31m
Length of Day
13h 39m
Tomorrow will be 1m 8s shorter.
Waning Crescent, 4% of the Moon is Illuminated
Jul 24
Waning Crescent
Jul 26
New
Aug 3
First Quarter
Aug 10
Full
Aug 17
Last Quarter

Yesterday's Extremes

Country Highs Country Lows

Community

WunderPhotos

Upload Photos

1,737,162 photos uploaded!

Nearby

Snow Depth

Not available.

Earthquake Activity

City Distance Mag. Time & Date
No recent earthquake activity has been reported nearby.
Minimum magnitude displayed is 2.5.

Coastal Water Temperatures

Place Temperature
No Stations Reporting

Nearby Weather Stations

Station Location Temp. Heat Index Dew Point Humidity Wind Precip. Elev Updated Type
Arrecife 70.3 °F 71 °F 64 °F 80% NNE  at  10.0 mph 0.00 in / hr 154 ft 11:56 PM BST Normal
Lanzarote, Playa Blanca 71.2 °F - 71 °F 99% North  at  8.1 mph 0.00 in / hr 50 ft 12:10 AM BST Rapid Fire

Show More Stations Show Fewer Stations